sensor_id;sensor_type;location;lat;lon;timestamp;P1;durP1;ratioP1;P2;durP2;ratioP2
46653;SDS011;38960;51.074;17.004;2023-04-16T00:01:48;30.38;;;23.67;;
46653;SDS011;38960;51.074;17.004;2023-04-16T00:04:14;26.50;;;23.70;;
46653;SDS011;38960;51.074;17.004;2023-04-16T00:06:39;27.42;;;24.50;;
46653;SDS011;38960;51.074;17.004;2023-04-16T00:09:05;29.05;;;24.00;;
46653;SDS011;38960;51.074;17.004;2023-04-16T00:11:30;26.45;;;23.88;;
46653;SDS011;38960;51.074;17.004;2023-04-16T00:13:56;26.75;;;23.90;;
46653;SDS011;38960;51.074;17.004;2023-04-16T00:16:21;26.88;;;24.05;;
46653;SDS011;38960;51.074;17.004;2023-04-16T00:18:47;28.20;;;25.05;;
46653;SDS011;38960;51.074;17.004;2023-04-16T00:21:12;28.33;;;25.42;;
46653;SDS011;38960;51.074;17.004;2023-04-16T00:23:38;30.58;;;26.67;;
46653;SDS011;38960;51.074;17.004;2023-04-16T00:26:03;31.17;;;27.95;;
46653;SDS011;38960;51.074;17.004;2023-04-16T00:28:29;34.00;;;27.15;;
46653;SDS011;38960;51.074;17.004;2023-04-16T00:30:55;31.02;;;27.77;;
46653;SDS011;38960;51.074;17.004;2023-04-16T00:33:21;31.67;;;28.38;;
46653;SDS011;38960;51.074;17.004;2023-04-16T00:35:47;31.55;;;28.35;;
46653;SDS011;38960;51.074;17.004;2023-04-16T00:38:13;34.28;;;29.48;;
46653;SDS011;38960;51.074;17.004;2023-04-16T00:40:38;33.33;;;29.73;;
46653;SDS011;38960;51.074;17.004;2023-04-16T00:43:04;31.00;;;27.80;;
46653;SDS011;38960;51.074;17.004;2023-04-16T00:45:29;32.00;;;27.38;;
46653;SDS011;38960;51.074;17.004;2023-04-16T00:47:55;31.73;;;28.42;;
46653;SDS011;38960;51.074;17.004;2023-04-16T00:50:21;33.60;;;29.13;;
46653;SDS011;38960;51.074;17.004;2023-04-16T00:52:47;31.83;;;28.67;;
46653;SDS011;38960;51.074;17.004;2023-04-16T00:55:14;32.20;;;28.92;;
46653;SDS011;38960;51.074;17.004;2023-04-16T00:57:41;30.52;;;27.38;;
46653;SDS011;38960;51.074;17.004;2023-04-16T01:00:07;30.60;;;27.40;;
46653;SDS011;38960;51.074;17.004;2023-04-16T01:02:34;30.75;;;27.42;;
46653;SDS011;38960;51.074;17.004;2023-04-16T01:05:00;28.52;;;25.73;;
46653;SDS011;38960;51.074;17.004;2023-04-16T01:07:26;28.23;;;25.33;;
46653;SDS011;38960;51.074;17.004;2023-04-16T01:09:51;28.02;;;25.33;;
46653;SDS011;38960;51.074;17.004;2023-04-16T01:12:17;28.70;;;25.90;;
46653;SDS011;38960;51.074;17.004;2023-04-16T01:14:42;27.60;;;24.77;;
46653;SDS011;38960;51.074;17.004;2023-04-16T01:17:08;28.58;;;25.67;;
46653;SDS011;38960;51.074;17.004;2023-04-16T01:19:33;28.50;;;25.50;;
46653;SDS011;38960;51.074;17.004;2023-04-16T01:22:01;27.83;;;24.95;;
46653;SDS011;38960;51.074;17.004;2023-04-16T01:24:27;29.15;;;26.08;;
46653;SDS011;38960;51.074;17.004;2023-04-16T01:26:52;27.45;;;24.52;;
46653;SDS011;38960;51.074;17.004;2023-04-16T01:29:18;28.52;;;25.67;;
46653;SDS011;38960;51.074;17.004;2023-04-16T01:31:44;30.92;;;25.52;;
46653;SDS011;38960;51.074;17.004;2023-04-16T01:34:36;28.25;;;25.30;;
46653;SDS011;38960;51.074;17.004;2023-04-16T01:37:02;29.38;;;26.35;;
46653;SDS011;38960;51.074;17.004;2023-04-16T01:39:28;29.48;;;26.42;;
46653;SDS011;38960;51.074;17.004;2023-04-16T01:41:55;29.77;;;26.77;;
46653;SDS011;38960;51.074;17.004;2023-04-16T01:44:21;29.17;;;26.17;;
46653;SDS011;38960;51.074;17.004;2023-04-16T01:46:47;31.25;;;26.38;;
46653;SDS011;38960;51.074;17.004;2023-04-16T01:49:13;28.83;;;25.73;;
46653;SDS011;38960;51.074;17.004;2023-04-16T01:51:39;30.38;;;27.20;;
46653;SDS011;38960;51.074;17.004;2023-04-16T01:54:06;29.05;;;26.15;;
46653;SDS011;38960;51.074;17.004;2023-04-16T01:56:31;28.33;;;25.42;;
46653;SDS011;38960;51.074;17.004;2023-04-16T01:58:57;29.73;;;26.73;;
46653;SDS011;38960;51.074;17.004;2023-04-16T02:01:26;30.17;;;26.70;;
46653;SDS011;38960;51.074;17.004;2023-04-16T02:03:51;28.50;;;25.67;;
46653;SDS011;38960;51.074;17.004;2023-04-16T02:06:18;29.25;;;26.15;;
46653;SDS011;38960;51.074;17.004;2023-04-16T02:08:45;29.75;;;26.63;;
46653;SDS011;38960;51.074;17.004;2023-04-16T02:11:14;29.45;;;26.30;;
46653;SDS011;38960;51.074;17.004;2023-04-16T02:13:40;30.52;;;26.55;;
46653;SDS011;38960;51.074;17.004;2023-04-16T02:16:06;29.52;;;26.40;;
46653;SDS011;38960;51.074;17.004;2023-04-16T02:18:42;30.05;;;26.98;;
46653;SDS011;38960;51.074;17.004;2023-04-16T02:21:08;30.02;;;26.88;;
46653;SDS011;38960;51.074;17.004;2023-04-16T02:23:33;33.42;;;25.92;;
46653;SDS011;38960;51.074;17.004;2023-04-16T02:25:59;29.67;;;26.55;;
46653;SDS011;38960;51.074;17.004;2023-04-16T02:28:27;28.48;;;25.48;;
46653;SDS011;38960;51.074;17.004;2023-04-16T02:30:53;29.42;;;25.65;;
46653;SDS011;38960;51.074;17.004;2023-04-16T02:33:19;29.67;;;26.52;;
46653;SDS011;38960;51.074;17.004;2023-04-16T02:35:55;32.25;;;25.90;;
46653;SDS011;38960;51.074;17.004;2023-04-16T02:38:21;30.83;;;27.63;;
46653;SDS011;38960;51.074;17.004;2023-04-16T02:40:47;35.88;;;28.05;;
46653;SDS011;38960;51.074;17.004;2023-04-16T02:43:13;32.42;;;29.10;;
46653;SDS011;38960;51.074;17.004;2023-04-16T02:45:39;31.88;;;28.77;;
46653;SDS011;38960;51.074;17.004;2023-04-16T02:48:05;32.05;;;28.92;;
46653;SDS011;38960;51.074;17.004;2023-04-16T02:50:32;32.10;;;28.85;;
46653;SDS011;38960;51.074;17.004;2023-04-16T02:52:58;31.08;;;27.38;;
46653;SDS011;38960;51.074;17.004;2023-04-16T02:55:23;32.08;;;27.92;;
46653;SDS011;38960;51.074;17.004;2023-04-16T02:57:49;30.00;;;27.02;;
46653;SDS011;38960;51.074;17.004;2023-04-16T03:00:17;29.63;;;26.55;;
46653;SDS011;38960;51.074;17.004;2023-04-16T03:02:43;31.67;;;28.60;;
46653;SDS011;38960;51.074;17.004;2023-04-16T03:05:08;31.42;;;28.15;;
46653;SDS011;38960;51.074;17.004;2023-04-16T03:07:34;30.10;;;27.08;;
46653;SDS011;38960;51.074;17.004;2023-04-16T03:10:00;30.65;;;27.60;;
46653;SDS011;38960;51.074;17.004;2023-04-16T03:12:25;31.75;;;28.35;;
46653;SDS011;38960;51.074;17.004;2023-04-16T03:14:51;28.95;;;26.05;;
46653;SDS011;38960;51.074;17.004;2023-04-16T03:17:16;30.33;;;27.23;;
46653;SDS011;38960;51.074;17.004;2023-04-16T03:19:42;28.88;;;26.08;;
46653;SDS011;38960;51.074;17.004;2023-04-16T03:22:07;29.70;;;26.52;;
46653;SDS011;38960;51.074;17.004;2023-04-16T03:24:33;29.65;;;26.73;;
46653;SDS011;38960;51.074;17.004;2023-04-16T03:26:59;29.02;;;26.13;;
46653;SDS011;38960;51.074;17.004;2023-04-16T03:29:26;31.63;;;26.33;;
46653;SDS011;38960;51.074;17.004;2023-04-16T03:31:53;28.52;;;25.58;;
46653;SDS011;38960;51.074;17.004;2023-04-16T03:34:20;29.63;;;26.52;;
46653;SDS011;38960;51.074;17.004;2023-04-16T03:36:46;28.85;;;26.08;;
46653;SDS011;38960;51.074;17.004;2023-04-16T03:39:12;29.27;;;25.50;;
46653;SDS011;38960;51.074;17.004;2023-04-16T03:41:37;31.55;;;26.80;;
46653;SDS011;38960;51.074;17.004;2023-04-16T03:44:03;29.08;;;26.08;;
46653;SDS011;38960;51.074;17.004;2023-04-16T03:46:29;29.52;;;26.60;;
46653;SDS011;38960;51.074;17.004;2023-04-16T03:48:54;31.25;;;27.02;;
46653;SDS011;38960;51.074;17.004;2023-04-16T03:51:20;29.88;;;26.67;;
46653;SDS011;38960;51.074;17.004;2023-04-16T03:53:46;31.58;;;28.25;;
46653;SDS011;38960;51.074;17.004;2023-04-16T03:56:13;30.73;;;26.90;;
46653;SDS011;38960;51.074;17.004;2023-04-16T03:58:38;29.88;;;26.70;;
46653;SDS011;38960;51.074;17.004;2023-04-16T04:01:04;33.63;;;27.15;;
46653;SDS011;38960;51.074;17.004;2023-04-16T04:03:29;31.80;;;27.45;;
46653;SDS011;38960;51.074;17.004;2023-04-16T04:05:55;37.30;;;28.17;;
46653;SDS011;38960;51.074;17.004;2023-04-16T04:08:25;32.25;;;27.27;;
46653;SDS011;38960;51.074;17.004;2023-04-16T04:10:51;30.85;;;27.58;;
46653;SDS011;38960;51.074;17.004;2023-04-16T04:13:18;32.13;;;27.50;;
46653;SDS011;38960;51.074;17.004;2023-04-16T04:15:44;30.50;;;27.33;;
46653;SDS011;38960;51.074;17.004;2023-04-16T04:18:09;31.05;;;27.75;;
46653;SDS011;38960;51.074;17.004;2023-04-16T04:20:38;31.90;;;27.52;;
46653;SDS011;38960;51.074;17.004;2023-04-16T04:23:05;29.67;;;26.67;;
46653;SDS011;38960;51.074;17.004;2023-04-16T04:25:31;30.40;;;27.25;;
46653;SDS011;38960;51.074;17.004;2023-04-16T04:27:57;29.35;;;26.40;;
46653;SDS011;38960;51.074;17.004;2023-04-16T04:30:22;30.48;;;27.38;;
46653;SDS011;38960;51.074;17.004;2023-04-16T04:32:48;32.33;;;27.38;;
46653;SDS011;38960;51.074;17.004;2023-04-16T04:35:14;34.35;;;28.30;;
46653;SDS011;38960;51.074;17.004;2023-04-16T04:37:40;32.03;;;27.83;;
46653;SDS011;38960;51.074;17.004;2023-04-16T04:40:15;30.30;;;27.02;;
46653;SDS011;38960;51.074;17.004;2023-04-16T04:42:41;29.92;;;26.80;;
46653;SDS011;38960;51.074;17.004;2023-04-16T04:45:08;32.47;;;28.65;;
46653;SDS011;38960;51.074;17.004;2023-04-16T04:47:34;30.00;;;26.90;;
46653;SDS011;38960;51.074;17.004;2023-04-16T04:49:59;31.40;;;28.15;;
46653;SDS011;38960;51.074;17.004;2023-04-16T04:52:26;32.30;;;27.67;;
46653;SDS011;38960;51.074;17.004;2023-04-16T04:54:51;29.63;;;26.30;;
46653;SDS011;38960;51.074;17.004;2023-04-16T04:57:17;32.00;;;28.60;;
46653;SDS011;38960;51.074;17.004;2023-04-16T04:59:43;35.38;;;29.27;;
46653;SDS011;38960;51.074;17.004;2023-04-16T05:02:10;35.95;;;29.65;;
46653;SDS011;38960;51.074;17.004;2023-04-16T05:04:35;35.13;;;29.25;;
46653;SDS011;38960;51.074;17.004;2023-04-16T05:07:01;35.60;;;30.58;;
46653;SDS011;38960;51.074;17.004;2023-04-16T05:09:27;36.97;;;30.95;;
46653;SDS011;38960;51.074;17.004;2023-04-16T05:11:52;36.75;;;30.80;;
46653;SDS011;38960;51.074;17.004;2023-04-16T05:14:18;33.95;;;28.88;;
46653;SDS011;38960;51.074;17.004;2023-04-16T05:16:43;37.42;;;31.73;;
46653;SDS011;38960;51.074;17.004;2023-04-16T05:19:09;33.50;;;29.90;;
46653;SDS011;38960;51.074;17.004;2023-04-16T05:21:35;33.88;;;29.77;;
46653;SDS011;38960;51.074;17.004;2023-04-16T05:24:00;33.25;;;29.73;;
46653;SDS011;38960;51.074;17.004;2023-04-16T05:26:26;35.50;;;29.67;;
46653;SDS011;38960;51.074;17.004;2023-04-16T05:28:51;35.78;;;30.27;;
46653;SDS011;38960;51.074;17.004;2023-04-16T05:31:17;34.60;;;30.90;;
46653;SDS011;38960;51.074;17.004;2023-04-16T05:33:42;38.13;;;30.95;;
46653;SDS011;38960;51.074;17.004;2023-04-16T05:36:08;35.33;;;30.50;;
46653;SDS011;38960;51.074;17.004;2023-04-16T05:38:33;33.88;;;30.23;;
46653;SDS011;38960;51.074;17.004;2023-04-16T05:40:59;33.10;;;29.45;;
46653;SDS011;38960;51.074;17.004;2023-04-16T05:43:24;34.08;;;29.30;;
46653;SDS011;38960;51.074;17.004;2023-04-16T05:45:50;32.47;;;28.90;;
46653;SDS011;38960;51.074;17.004;2023-04-16T05:48:15;34.90;;;31.05;;
46653;SDS011;38960;51.074;17.004;2023-04-16T05:50:41;37.30;;;31.10;;
46653;SDS011;38960;51.074;17.004;2023-04-16T05:53:07;35.88;;;30.48;;
46653;SDS011;38960;51.074;17.004;2023-04-16T05:55:33;34.63;;;30.52;;
46653;SDS011;38960;51.074;17.004;2023-04-16T05:58:01;33.25;;;29.67;;
46653;SDS011;38960;51.074;17.004;2023-04-16T06:00:28;32.65;;;29.10;;
46653;SDS011;38960;51.074;17.004;2023-04-16T06:02:54;32.75;;;28.02;;
46653;SDS011;38960;51.074;17.004;2023-04-16T06:05:20;33.60;;;29.38;;
46653;SDS011;38960;51.074;17.004;2023-04-16T06:07:45;31.77;;;28.45;;
46653;SDS011;38960;51.074;17.004;2023-04-16T06:10:11;33.45;;;29.95;;
46653;SDS011;38960;51.074;17.004;2023-04-16T06:12:37;34.88;;;27.30;;
46653;SDS011;38960;51.074;17.004;2023-04-16T06:15:02;32.65;;;28.77;;
46653;SDS011;38960;51.074;17.004;2023-04-16T06:17:28;32.05;;;28.85;;
46653;SDS011;38960;51.074;17.004;2023-04-16T06:19:54;33.55;;;28.70;;
46653;SDS011;38960;51.074;17.004;2023-04-16T06:22:19;35.10;;;29.92;;
46653;SDS011;38960;51.074;17.004;2023-04-16T06:24:45;35.47;;;31.73;;
46653;SDS011;38960;51.074;17.004;2023-04-16T06:27:10;34.63;;;31.20;;
46653;SDS011;38960;51.074;17.004;2023-04-16T06:29:36;36.42;;;32.42;;
46653;SDS011;38960;51.074;17.004;2023-04-16T06:32:01;35.60;;;31.48;;
46653;SDS011;38960;51.074;17.004;2023-04-16T06:34:28;34.70;;;30.98;;
46653;SDS011;38960;51.074;17.004;2023-04-16T06:36:53;35.10;;;31.33;;
46653;SDS011;38960;51.074;17.004;2023-04-16T06:39:19;34.97;;;31.25;;
46653;SDS011;38960;51.074;17.004;2023-04-16T06:41:49;36.42;;;30.83;;
46653;SDS011;38960;51.074;17.004;2023-04-16T06:44:16;36.33;;;31.85;;
46653;SDS011;38960;51.074;17.004;2023-04-16T06:46:41;35.03;;;30.58;;
46653;SDS011;38960;51.074;17.004;2023-04-16T06:49:07;34.45;;;30.75;;
46653;SDS011;38960;51.074;17.004;2023-04-16T06:51:32;35.05;;;29.80;;
46653;SDS011;38960;51.074;17.004;2023-04-16T06:53:58;34.92;;;31.20;;
46653;SDS011;38960;51.074;17.004;2023-04-16T06:56:23;33.42;;;29.95;;
46653;SDS011;38960;51.074;17.004;2023-04-16T06:58:49;32.58;;;29.15;;
46653;SDS011;38960;51.074;17.004;2023-04-16T07:01:15;32.80;;;29.48;;
46653;SDS011;38960;51.074;17.004;2023-04-16T07:03:41;33.78;;;30.23;;
46653;SDS011;38960;51.074;17.004;2023-04-16T07:06:08;34.08;;;30.52;;
46653;SDS011;38960;51.074;17.004;2023-04-16T07:08:33;36.05;;;31.25;;
46653;SDS011;38960;51.074;17.004;2023-04-16T07:10:59;34.00;;;30.40;;
46653;SDS011;38960;51.074;17.004;2023-04-16T07:13:25;34.25;;;30.63;;
46653;SDS011;38960;51.074;17.004;2023-04-16T07:15:50;34.53;;;30.92;;
46653;SDS011;38960;51.074;17.004;2023-04-16T07:18:16;35.33;;;31.67;;
46653;SDS011;38960;51.074;17.004;2023-04-16T07:20:41;34.45;;;30.95;;
46653;SDS011;38960;51.074;17.004;2023-04-16T07:23:07;32.50;;;29.08;;
46653;SDS011;38960;51.074;17.004;2023-04-16T07:25:33;34.05;;;30.48;;
46653;SDS011;38960;51.074;17.004;2023-04-16T07:27:58;35.58;;;31.63;;
46653;SDS011;38960;51.074;17.004;2023-04-16T07:30:24;32.35;;;28.95;;
46653;SDS011;38960;51.074;17.004;2023-04-16T07:32:50;35.20;;;31.40;;
46653;SDS011;38960;51.074;17.004;2023-04-16T07:35:15;32.10;;;28.92;;
46653;SDS011;38960;51.074;17.004;2023-04-16T07:37:41;33.25;;;29.85;;
46653;SDS011;38960;51.074;17.004;2023-04-16T07:40:07;32.33;;;29.08;;
46653;SDS011;38960;51.074;17.004;2023-04-16T07:42:32;31.17;;;28.20;;
46653;SDS011;38960;51.074;17.004;2023-04-16T07:44:58;32.83;;;29.63;;
46653;SDS011;38960;51.074;17.004;2023-04-16T07:47:24;32.55;;;29.25;;
46653;SDS011;38960;51.074;17.004;2023-04-16T07:49:51;30.77;;;27.45;;
46653;SDS011;38960;51.074;17.004;2023-04-16T07:52:17;32.30;;;29.15;;
46653;SDS011;38960;51.074;17.004;2023-04-16T07:54:43;32.63;;;29.52;;
46653;SDS011;38960;51.074;17.004;2023-04-16T07:57:09;32.38;;;29.42;;
46653;SDS011;38960;51.074;17.004;2023-04-16T07:59:36;29.55;;;26.65;;
46653;SDS011;38960;51.074;17.004;2023-04-16T08:02:01;30.52;;;27.67;;
46653;SDS011;38960;51.074;17.004;2023-04-16T08:04:28;31.63;;;28.48;;
46653;SDS011;38960;51.074;17.004;2023-04-16T08:06:54;31.13;;;28.10;;
46653;SDS011;38960;51.074;17.004;2023-04-16T08:09:21;28.65;;;26.05;;
46653;SDS011;38960;51.074;17.004;2023-04-16T08:11:47;30.63;;;27.42;;
46653;SDS011;38960;51.074;17.004;2023-04-16T08:14:14;29.73;;;26.75;;
46653;SDS011;38960;51.074;17.004;2023-04-16T08:16:41;28.92;;;26.10;;
46653;SDS011;38960;51.074;17.004;2023-04-16T08:19:06;28.08;;;25.60;;
46653;SDS011;38960;51.074;17.004;2023-04-16T08:21:32;31.88;;;28.88;;
46653;SDS011;38960;51.074;17.004;2023-04-16T08:23:58;42.75;;;38.28;;
46653;SDS011;38960;51.074;17.004;2023-04-16T08:26:24;62.33;;;55.80;;
46653;SDS011;38960;51.074;17.004;2023-04-16T08:28:50;105.13;;;88.43;;
46653;SDS011;38960;51.074;17.004;2023-04-16T08:31:15;38.17;;;34.20;;
46653;SDS011;38960;51.074;17.004;2023-04-16T08:33:41;34.88;;;31.40;;
46653;SDS011;38960;51.074;17.004;2023-04-16T08:36:07;30.48;;;27.63;;
46653;SDS011;38960;51.074;17.004;2023-04-16T08:38:33;41.33;;;37.08;;
46653;SDS011;38960;51.074;17.004;2023-04-16T08:41:01;37.33;;;33.72;;
46653;SDS011;38960;51.074;17.004;2023-04-16T08:43:27;30.92;;;28.23;;
46653;SDS011;38960;51.074;17.004;2023-04-16T08:45:57;28.00;;;25.48;;
46653;SDS011;38960;51.074;17.004;2023-04-16T08:48:23;27.33;;;25.02;;
46653;SDS011;38960;51.074;17.004;2023-04-16T08:50:50;28.20;;;25.80;;
46653;SDS011;38960;51.074;17.004;2023-04-16T08:53:17;28.05;;;25.67;;
46653;SDS011;38960;51.074;17.004;2023-04-16T08:55:47;26.38;;;23.95;;
46653;SDS011;38960;51.074;17.004;2023-04-16T08:58:14;27.52;;;24.92;;
46653;SDS011;38960;51.074;17.004;2023-04-16T09:00:43;29.13;;;26.48;;
46653;SDS011;38960;51.074;17.004;2023-04-16T09:03:10;25.92;;;23.63;;
46653;SDS011;38960;51.074;17.004;2023-04-16T09:05:37;26.85;;;24.58;;
46653;SDS011;38960;51.074;17.004;2023-04-16T09:08:06;25.55;;;23.45;;
46653;SDS011;38960;51.074;17.004;2023-04-16T09:10:31;27.75;;;25.35;;
46653;SDS011;38960;51.074;17.004;2023-04-16T09:12:57;26.73;;;24.38;;
46653;SDS011;38960;51.074;17.004;2023-04-16T09:15:25;25.92;;;23.80;;
46653;SDS011;38960;51.074;17.004;2023-04-16T09:17:58;25.10;;;23.15;;
46653;SDS011;38960;51.074;17.004;2023-04-16T09:20:24;25.48;;;23.05;;
46653;SDS011;38960;51.074;17.004;2023-04-16T09:22:49;24.50;;;22.50;;
46653;SDS011;38960;51.074;17.004;2023-04-16T09:25:18;23.08;;;20.58;;
46653;SDS011;38960;51.074;17.004;2023-04-16T09:27:48;20.95;;;19.25;;
46653;SDS011;38960;51.074;17.004;2023-04-16T09:33:13;18.42;;;17.13;;
46653;SDS011;38960;51.074;17.004;2023-04-16T09:35:59;19.77;;;18.27;;
46653;SDS011;38960;51.074;17.004;2023-04-16T09:39:00;17.13;;;15.82;;
46653;SDS011;38960;51.074;17.004;2023-04-16T09:41:27;17.83;;;16.42;;
46653;SDS011;38960;51.074;17.004;2023-04-16T09:43:57;16.88;;;15.73;;
46653;SDS011;38960;51.074;17.004;2023-04-16T09:46:30;17.90;;;16.40;;
46653;SDS011;38960;51.074;17.004;2023-04-16T09:48:57;19.25;;;17.75;;
46653;SDS011;38960;51.074;17.004;2023-04-16T09:51:23;18.67;;;17.23;;
46653;SDS011;38960;51.074;17.004;2023-04-16T09:54:12;18.57;;;17.20;;
46653;SDS011;38960;51.074;17.004;2023-04-16T09:56:42;17.85;;;16.55;;
46653;SDS011;38960;51.074;17.004;2023-04-16T09:59:20;17.15;;;15.73;;
46653;SDS011;38960;51.074;17.004;2023-04-16T10:02:00;16.15;;;15.05;;
46653;SDS011;38960;51.074;17.004;2023-04-16T10:04:26;16.40;;;15.40;;
46653;SDS011;38960;51.074;17.004;2023-04-16T10:07:01;15.20;;;14.02;;
46653;SDS011;38960;51.074;17.004;2023-04-16T10:09:31;16.83;;;15.48;;
46653;SDS011;38960;51.074;17.004;2023-04-16T10:11:57;15.95;;;14.85;;
46653;SDS011;38960;51.074;17.004;2023-04-16T10:14:23;17.20;;;16.10;;
46653;SDS011;38960;51.074;17.004;2023-04-16T10:16:48;17.27;;;16.08;;
46653;SDS011;38960;51.074;17.004;2023-04-16T10:19:14;17.20;;;15.88;;
46653;SDS011;38960;51.074;17.004;2023-04-16T10:21:40;17.02;;;15.90;;
46653;SDS011;38960;51.074;17.004;2023-04-16T10:24:06;16.40;;;15.40;;
46653;SDS011;38960;51.074;17.004;2023-04-16T10:26:32;16.60;;;15.50;;
46653;SDS011;38960;51.074;17.004;2023-04-16T10:28:59;16.17;;;15.07;;
46653;SDS011;38960;51.074;17.004;2023-04-16T10:31:25;16.52;;;15.35;;
46653;SDS011;38960;51.074;17.004;2023-04-16T10:33:51;16.70;;;15.50;;
46653;SDS011;38960;51.074;17.004;2023-04-16T10:36:21;17.15;;;15.95;;
46653;SDS011;38960;51.074;17.004;2023-04-16T10:38:48;16.25;;;15.25;;
46653;SDS011;38960;51.074;17.004;2023-04-16T10:41:15;16.25;;;14.95;;
46653;SDS011;38960;51.074;17.004;2023-04-16T10:43:44;16.02;;;14.55;;
46653;SDS011;38960;51.074;17.004;2023-04-16T10:49:17;16.40;;;15.20;;
46653;SDS011;38960;51.074;17.004;2023-04-16T10:51:57;13.85;;;12.85;;
46653;SDS011;38960;51.074;17.004;2023-04-16T10:54:24;13.27;;;12.55;;
46653;SDS011;38960;51.074;17.004;2023-04-16T10:56:50;14.07;;;13.23;;
46653;SDS011;38960;51.074;17.004;2023-04-16T10:59:19;14.30;;;13.32;;
46653;SDS011;38960;51.074;17.004;2023-04-16T11:01:52;14.40;;;13.30;;
46653;SDS011;38960;51.074;17.004;2023-04-16T11:12:37;14.50;;;13.38;;
46653;SDS011;38960;51.074;17.004;2023-04-16T11:15:07;14.20;;;13.17;;
46653;SDS011;38960;51.074;17.004;2023-04-16T11:17:41;14.75;;;13.65;;
46653;SDS011;38960;51.074;17.004;2023-04-16T11:20:09;13.90;;;13.00;;
46653;SDS011;38960;51.074;17.004;2023-04-16T11:22:39;13.63;;;12.82;;
46653;SDS011;38960;51.074;17.004;2023-04-16T11:25:06;13.57;;;12.60;;
46653;SDS011;38960;51.074;17.004;2023-04-16T11:27:32;12.90;;;12.20;;
46653;SDS011;38960;51.074;17.004;2023-04-16T11:30:01;13.15;;;12.35;;
46653;SDS011;38960;51.074;17.004;2023-04-16T11:32:33;13.63;;;12.73;;
46653;SDS011;38960;51.074;17.004;2023-04-16T11:34:59;13.52;;;12.63;;
46653;SDS011;38960;51.074;17.004;2023-04-16T11:37:31;13.45;;;12.55;;
46653;SDS011;38960;51.074;17.004;2023-04-16T11:39:58;13.00;;;12.20;;
46653;SDS011;38960;51.074;17.004;2023-04-16T11:42:24;13.85;;;12.95;;
46653;SDS011;38960;51.074;17.004;2023-04-16T11:44:54;14.75;;;13.40;;
46653;SDS011;38960;51.074;17.004;2023-04-16T11:47:21;13.75;;;12.95;;
46653;SDS011;38960;51.074;17.004;2023-04-16T11:49:47;13.55;;;12.75;;
46653;SDS011;38960;51.074;17.004;2023-04-16T11:52:14;14.27;;;13.23;;
46653;SDS011;38960;51.074;17.004;2023-04-16T11:54:49;13.80;;;12.90;;
46653;SDS011;38960;51.074;17.004;2023-04-16T11:57:15;13.68;;;12.80;;
46653;SDS011;38960;51.074;17.004;2023-04-16T11:59:48;15.52;;;14.52;;
46653;SDS011;38960;51.074;17.004;2023-04-16T12:02:14;13.10;;;12.20;;
46653;SDS011;38960;51.074;17.004;2023-04-16T12:04:39;12.70;;;11.90;;
46653;SDS011;38960;51.074;17.004;2023-04-16T12:09:31;13.23;;;12.15;;
46653;SDS011;38960;51.074;17.004;2023-04-16T12:11:59;16.77;;;15.27;;
46653;SDS011;38960;51.074;17.004;2023-04-16T12:14:25;19.13;;;17.58;;
46653;SDS011;38960;51.074;17.004;2023-04-16T12:16:50;15.00;;;13.90;;
46653;SDS011;38960;51.074;17.004;2023-04-16T12:19:16;14.38;;;13.23;;
46653;SDS011;38960;51.074;17.004;2023-04-16T12:21:43;13.55;;;12.65;;
46653;SDS011;38960;51.074;17.004;2023-04-16T12:24:10;15.88;;;14.43;;
46653;SDS011;38960;51.074;17.004;2023-04-16T12:26:47;14.30;;;13.20;;
46653;SDS011;38960;51.074;17.004;2023-04-16T12:29:20;14.55;;;13.50;;
46653;SDS011;38960;51.074;17.004;2023-04-16T12:31:49;16.10;;;14.55;;
46653;SDS011;38960;51.074;17.004;2023-04-16T12:34:15;14.27;;;13.18;;
46653;SDS011;38960;51.074;17.004;2023-04-16T12:36:42;13.73;;;12.57;;
46653;SDS011;38960;51.074;17.004;2023-04-16T12:39:12;13.68;;;12.68;;
46653;SDS011;38960;51.074;17.004;2023-04-16T12:41:39;15.48;;;13.95;;
46653;SDS011;38960;51.074;17.004;2023-04-16T12:44:09;13.95;;;12.95;;
46653;SDS011;38960;51.074;17.004;2023-04-16T12:46:40;13.27;;;12.27;;
46653;SDS011;38960;51.074;17.004;2023-04-16T12:49:06;14.07;;;13.07;;
46653;SDS011;38960;51.074;17.004;2023-04-16T12:51:32;12.68;;;11.68;;
46653;SDS011;38960;51.074;17.004;2023-04-16T12:53:59;13.25;;;12.25;;
46653;SDS011;38960;51.074;17.004;2023-04-16T12:56:26;13.77;;;12.90;;
46653;SDS011;38960;51.074;17.004;2023-04-16T12:58:52;14.00;;;12.80;;
46653;SDS011;38960;51.074;17.004;2023-04-16T13:01:18;13.93;;;12.93;;
46653;SDS011;38960;51.074;17.004;2023-04-16T13:03:43;13.85;;;12.60;;
46653;SDS011;38960;51.074;17.004;2023-04-16T13:06:09;15.50;;;14.25;;
46653;SDS011;38960;51.074;17.004;2023-04-16T13:08:35;14.43;;;13.27;;
46653;SDS011;38960;51.074;17.004;2023-04-16T13:11:01;13.48;;;12.48;;
46653;SDS011;38960;51.074;17.004;2023-04-16T13:13:27;13.55;;;12.55;;
46653;SDS011;38960;51.074;17.004;2023-04-16T13:15:53;13.27;;;12.45;;
46653;SDS011;38960;51.074;17.004;2023-04-16T13:18:18;12.82;;;11.73;;
46653;SDS011;38960;51.074;17.004;2023-04-16T13:20:44;12.85;;;11.95;;
46653;SDS011;38960;51.074;17.004;2023-04-16T13:23:09;14.13;;;13.23;;
46653;SDS011;38960;51.074;17.004;2023-04-16T13:25:35;13.20;;;12.27;;
46653;SDS011;38960;51.074;17.004;2023-04-16T13:28:00;13.07;;;12.18;;
46653;SDS011;38960;51.074;17.004;2023-04-16T13:30:26;13.77;;;12.75;;
46653;SDS011;38960;51.074;17.004;2023-04-16T13:32:53;14.45;;;13.35;;
46653;SDS011;38960;51.074;17.004;2023-04-16T13:35:20;13.35;;;12.35;;
46653;SDS011;38960;51.074;17.004;2023-04-16T13:37:45;13.57;;;12.77;;
46653;SDS011;38960;51.074;17.004;2023-04-16T13:40:11;13.30;;;12.40;;
46653;SDS011;38960;51.074;17.004;2023-04-16T13:42:36;12.63;;;11.70;;
46653;SDS011;38960;51.074;17.004;2023-04-16T13:45:02;15.25;;;14.25;;
46653;SDS011;38960;51.074;17.004;2023-04-16T13:47:28;13.40;;;12.60;;
46653;SDS011;38960;51.074;17.004;2023-04-16T13:49:53;14.00;;;12.90;;
46653;SDS011;38960;51.074;17.004;2023-04-16T13:52:19;14.15;;;13.10;;
46653;SDS011;38960;51.074;17.004;2023-04-16T13:54:44;13.57;;;12.57;;
46653;SDS011;38960;51.074;17.004;2023-04-16T13:57:17;13.30;;;12.50;;
46653;SDS011;38960;51.074;17.004;2023-04-16T13:59:44;13.63;;;12.73;;
46653;SDS011;38960;51.074;17.004;2023-04-16T14:02:10;13.07;;;12.13;;
46653;SDS011;38960;51.074;17.004;2023-04-16T14:04:35;14.00;;;13.00;;
46653;SDS011;38960;51.074;17.004;2023-04-16T14:07:01;12.10;;;11.32;;
46653;SDS011;38960;51.074;17.004;2023-04-16T14:09:26;12.13;;;11.32;;
46653;SDS011;38960;51.074;17.004;2023-04-16T14:11:52;12.98;;;12.18;;
46653;SDS011;38960;51.074;17.004;2023-04-16T14:14:17;12.27;;;11.48;;
46653;SDS011;38960;51.074;17.004;2023-04-16T14:16:43;12.73;;;11.82;;
46653;SDS011;38960;51.074;17.004;2023-04-16T14:19:08;12.50;;;11.70;;
46653;SDS011;38960;51.074;17.004;2023-04-16T14:21:34;13.18;;;12.38;;
46653;SDS011;38960;51.074;17.004;2023-04-16T14:24:00;12.90;;;11.90;;